CKS9144 KNKT-LFSB
Flight info
| Callsign | CKS9144 |
|---|---|
| Flight time | N/A |
| Altitude | 31000 |
| Route | PRANK Q101 KALDA Q108 ZJAAY Q167 YAZUU Q97 BLENO Q439 BEEKN Q480 ENE Q822 ALLEX N469B BUDAR/M084F310 DCT 51N044W 52N037W 53N029W 53N021W/N0487F310 DCT GISTI/N0487F330 DCT GISTI DCT LUPOR DCT SLANY DCT SAWPE Q63 CPT UL9 BIG L607 KONAN UL607 KOK M150 DIK N852 GTQ A242 ARPUS |
| Aircraft | B77L/H-SDE1E2E3FGHIJ2J3J4J5M1RWXY/LB1D1 |
Departure
| Time | 2026-04-11 07:29 |
|---|---|
| Airport | Cherry Point MCAS / Cunningham Field/ (KNKT) |
Arrival
| Time | N/A |
|---|---|
| Airport | EuroAirport Basel–Mulhouse–Freiburg (LFSB) |
| Time | Latitude | Longitude | Altitude | Speed | Heading |
|---|---|---|---|---|---|
| 2026-04-11 07:11 | 34.90562 | -76.88985 | 61 ft | 0 kts | 136° |
| 2026-04-11 07:13 | 34.90586 | -76.88862 | 39 ft | 0 kts | 136° |
| 2026-04-11 07:26 | 34.90572 | -76.88830 | 39 ft | 7 kts | 109° |
| 2026-04-11 07:27 | 34.90561 | -76.88762 | 39 ft | 12 kts | 84° |
| 2026-04-11 07:27 | 34.90564 | -76.88674 | 39 ft | 9 kts | 111° |
| 2026-04-11 07:27 | 34.90545 | -76.88604 | 39 ft | 10 kts | 65° |
| 2026-04-11 07:27 | 34.90538 | -76.88528 | 37 ft | 10 kts | 130° |
| 2026-04-11 07:28 | 34.90487 | -76.88466 | 40 ft | 10 kts | 135° |
| 2026-04-11 07:28 | 34.90436 | -76.88402 | 40 ft | 12 kts | 133° |
| 2026-04-11 07:28 | 34.90361 | -76.88309 | 39 ft | 18 kts | 133° |
| 2026-04-11 07:28 | 34.90266 | -76.88189 | 40 ft | 27 kts | 135° |
| 2026-04-11 07:29 | 34.89938 | -76.87801 | 38 ft | 106 kts | 136° |
| 2026-04-11 07:29 | 34.89225 | -76.86953 | 38 ft | 179 kts | 136° |
| 2026-04-11 07:29 | 34.88312 | -76.85843 | 761 ft | 183 kts | 136° |
| 2026-04-11 07:29 | 34.87405 | -76.84652 | 1415 ft | 205 kts | 135° |
| 2026-04-11 07:30 | 34.86402 | -76.83301 | 1544 ft | 225 kts | 135° |
| 2026-04-11 07:30 | 34.85312 | -76.81840 | 1813 ft | 242 kts | 135° |
| 2026-04-11 07:30 | 34.84144 | -76.80288 | 2231 ft | 253 kts | 133° |
| 2026-04-11 07:30 | 34.83237 | -76.78408 | 2524 ft | 268 kts | 100° |
| 2026-04-11 07:31 | 34.83350 | -76.76178 | 2966 ft | 273 kts | 64° |
| 2026-04-11 07:31 | 34.84481 | -76.74385 | 3576 ft | 268 kts | 32° |
| 2026-04-11 07:31 | 34.86147 | -76.73453 | 4267 ft | 264 kts | 9° |
| 2026-04-11 07:31 | 34.87970 | -76.73288 | 4928 ft | 264 kts | 352° |
| 2026-04-11 07:32 | 34.89726 | -76.73945 | 5522 ft | 266 kts | 335° |
| 2026-04-11 07:32 | 34.91407 | -76.74926 | 6168 ft | 269 kts | 334° |
| 2026-04-11 07:32 | 34.93088 | -76.75933 | 6889 ft | 269 kts | 334° |
| 2026-04-11 07:32 | 34.94778 | -76.76947 | 7508 ft | 272 kts | 334° |
| 2026-04-11 07:33 | 34.96490 | -76.77967 | 8125 ft | 276 kts | 334° |
| 2026-04-11 07:33 | 34.98228 | -76.78996 | 8747 ft | 278 kts | 334° |
| 2026-04-11 07:33 | 34.99990 | -76.80032 | 9364 ft | 282 kts | 334° |
| 2026-04-11 07:33 | 35.01766 | -76.81073 | 9991 ft | 284 kts | 335° |
| 2026-04-11 07:34 | 35.03569 | -76.82127 | 10449 ft | 293 kts | 334° |
| 2026-04-11 07:34 | 35.05453 | -76.83225 | 10583 ft | 314 kts | 334° |
| 2026-04-11 07:34 | 35.07485 | -76.84408 | 10738 ft | 333 kts | 334° |
| 2026-04-11 07:34 | 35.09649 | -76.85669 | 10893 ft | 353 kts | 334° |
| 2026-04-11 07:35 | 35.11906 | -76.86984 | 11284 ft | 365 kts | 334° |
| 2026-04-11 07:35 | 35.14230 | -76.88339 | 11811 ft | 373 kts | 334° |
| 2026-04-11 07:35 | 35.16593 | -76.89716 | 12445 ft | 377 kts | 334° |
| 2026-04-11 07:35 | 35.18946 | -76.91088 | 13110 ft | 380 kts | 333° |
| 2026-04-11 07:36 | 35.21350 | -76.92460 | 13748 ft | 381 kts | 338° |
| 2026-04-11 07:36 | 35.23972 | -76.93113 | 14113 ft | 393 kts | 360° |
| 2026-04-11 07:36 | 35.26688 | -76.92573 | 14687 ft | 399 kts | 18° |
| 2026-04-11 07:36 | 35.29215 | -76.91185 | 15265 ft | 400 kts | 25° |
| 2026-04-11 07:37 | 35.31727 | -76.89639 | 15757 ft | 406 kts | 25° |
| 2026-04-11 07:37 | 35.34252 | -76.88058 | 16319 ft | 409 kts | 25° |
| 2026-04-11 07:37 | 35.36793 | -76.86466 | 16914 ft | 411 kts | 25° |
| 2026-04-11 07:37 | 35.39353 | -76.84873 | 17480 ft | 415 kts | 25° |
| 2026-04-11 07:38 | 35.41944 | -76.83272 | 18041 ft | 418 kts | 24° |
| 2026-04-11 07:38 | 35.44557 | -76.81667 | 18573 ft | 422 kts | 24° |
| 2026-04-11 07:38 | 35.47193 | -76.80054 | 19050 ft | 425 kts | 24° |
| 2026-04-11 07:38 | 35.49848 | -76.78431 | 19543 ft | 427 kts | 24° |
| 2026-04-11 07:39 | 35.52485 | -76.76819 | 20026 ft | 430 kts | 24° |
| 2026-04-11 07:39 | 35.55173 | -76.75175 | 20505 ft | 433 kts | 24° |
| 2026-04-11 07:39 | 35.57883 | -76.73516 | 20967 ft | 436 kts | 23° |
| 2026-04-11 07:39 | 35.60613 | -76.71845 | 21411 ft | 439 kts | 23° |
| 2026-04-11 07:40 | 35.63360 | -76.70161 | 21877 ft | 442 kts | 23° |
| 2026-04-11 07:40 | 35.66122 | -76.68466 | 22332 ft | 445 kts | 23° |
| 2026-04-11 07:40 | 35.68898 | -76.66761 | 22786 ft | 447 kts | 23° |
| 2026-04-11 07:40 | 35.71692 | -76.65044 | 23230 ft | 450 kts | 23° |
| 2026-04-11 07:41 | 35.74465 | -76.63338 | 23663 ft | 453 kts | 23° |
| 2026-04-11 07:41 | 35.77334 | -76.61571 | 24054 ft | 456 kts | 23° |
| 2026-04-11 07:41 | 35.80147 | -76.59838 | 24427 ft | 459 kts | 23° |
| 2026-04-11 07:41 | 35.83008 | -76.58073 | 24803 ft | 461 kts | 23° |
| 2026-04-11 07:42 | 35.85881 | -76.56300 | 25185 ft | 463 kts | 23° |
| 2026-04-11 07:42 | 35.88767 | -76.54518 | 25556 ft | 465 kts | 23° |
| 2026-04-11 07:42 | 35.91661 | -76.52697 | 25912 ft | 468 kts | 24° |
| 2026-04-11 07:43 | 35.97421 | -76.48831 | 26620 ft | 473 kts | 25° |
| 2026-04-11 07:43 | 36.00318 | -76.46846 | 26977 ft | 476 kts | 25° |
| 2026-04-11 07:43 | 36.03223 | -76.44858 | 27328 ft | 478 kts | 25° |
| 2026-04-11 07:43 | 36.06144 | -76.42866 | 27669 ft | 480 kts | 25° |
| 2026-04-11 07:44 | 36.09075 | -76.40875 | 27993 ft | 482 kts | 25° |
| 2026-04-11 07:44 | 36.12034 | -76.38868 | 28327 ft | 484 kts | 25° |
| 2026-04-11 07:44 | 36.14994 | -76.36863 | 28639 ft | 487 kts | 25° |
| 2026-04-11 07:44 | 36.17937 | -76.34870 | 28940 ft | 489 kts | 25° |
| 2026-04-11 07:45 | 36.20928 | -76.32842 | 29238 ft | 491 kts | 25° |
| 2026-04-11 07:45 | 36.23925 | -76.30808 | 29506 ft | 493 kts | 25° |
| 2026-04-11 07:45 | 36.26942 | -76.28758 | 29800 ft | 494 kts | 25° |
| 2026-04-11 07:45 | 36.29962 | -76.26704 | 30093 ft | 496 kts | 25° |
| 2026-04-11 07:46 | 36.32986 | -76.24644 | 30442 ft | 495 kts | 25° |
| 2026-04-11 07:46 | 36.36003 | -76.22587 | 30781 ft | 494 kts | 24° |
| 2026-04-11 07:46 | 36.39009 | -76.20535 | 31091 ft | 493 kts | 24° |
| 2026-04-11 07:47 | 36.45061 | -76.16405 | 31221 ft | 497 kts | 24° |
| 2026-04-11 07:47 | 36.51109 | -76.12265 | 31230 ft | 493 kts | 24° |
| 2026-04-11 07:48 | 36.57070 | -76.08177 | 31237 ft | 492 kts | 24° |
| 2026-04-11 07:48 | 36.63060 | -76.04066 | 31231 ft | 491 kts | 24° |
| 2026-04-11 07:49 | 36.69046 | -75.99949 | 31234 ft | 492 kts | 24° |
| 2026-04-11 07:49 | 36.75037 | -75.95821 | 31228 ft | 492 kts | 24° |
| 2026-04-11 07:50 | 36.81045 | -75.91674 | 31227 ft | 493 kts | 24° |
| 2026-04-11 07:50 | 36.87030 | -75.87534 | 31229 ft | 494 kts | 24° |
| 2026-04-11 07:51 | 36.93056 | -75.83358 | 31225 ft | 495 kts | 24° |
| 2026-04-11 07:51 | 36.99088 | -75.79170 | 31223 ft | 496 kts | 24° |
| 2026-04-11 07:52 | 37.05256 | -75.75394 | 31209 ft | 490 kts | 15° |
| 2026-04-11 07:52 | 37.11762 | -75.73100 | 31214 ft | 482 kts | 5° |
| 2026-04-11 07:53 | 37.18328 | -75.71739 | 31217 ft | 481 kts | 4° |
| 2026-04-11 07:53 | 37.24938 | -75.70393 | 31218 ft | 481 kts | 4° |
| 2026-04-11 07:54 | 37.31547 | -75.68997 | 31211 ft | 482 kts | 4° |
| 2026-04-11 07:54 | 37.38170 | -75.67573 | 31212 ft | 482 kts | 4° |
| 2026-04-11 07:55 | 37.44777 | -75.66148 | 31218 ft | 482 kts | 4° |
| 2026-04-11 07:55 | 37.51343 | -75.64732 | 31213 ft | 481 kts | 4° |
| 2026-04-11 07:56 | 37.57950 | -75.63306 | 31214 ft | 481 kts | 4° |
| 2026-04-11 07:56 | 37.64548 | -75.61879 | 31212 ft | 481 kts | 3° |
| 2026-04-11 07:57 | 37.71157 | -75.61212 | 31206 ft | 472 kts | 353° |
| 2026-04-11 07:57 | 37.77652 | -75.61894 | 31212 ft | 467 kts | 349° |
| 2026-04-11 07:58 | 37.84143 | -75.61406 | 31214 ft | 483 kts | 10° |
| 2026-04-11 07:58 | 37.90282 | -75.57639 | 31213 ft | 500 kts | 29° |
| 2026-04-11 07:59 | 37.95964 | -75.52492 | 31212 ft | 503 kts | 30° |
| 2026-04-11 07:59 | 38.01731 | -75.47392 | 31214 ft | 505 kts | 28° |
| 2026-04-11 08:00 | 38.07526 | -75.42324 | 31216 ft | 507 kts | 30° |
| 2026-04-11 08:00 | 38.13177 | -75.37002 | 31216 ft | 509 kts | 31° |
| 2026-04-11 08:01 | 38.18834 | -75.31573 | 31203 ft | 509 kts | 31° |
| 2026-04-11 08:01 | 38.24500 | -75.26185 | 31196 ft | 508 kts | 31° |
| 2026-04-11 08:02 | 38.30167 | -75.20820 | 31195 ft | 507 kts | 31° |
| 2026-04-11 08:02 | 38.34862 | -75.16367 | 31195 ft | 506 kts | 31° |
| 2026-04-11 08:03 | 38.40513 | -75.10994 | 31190 ft | 505 kts | 31° |
| 2026-04-11 08:03 | 38.47046 | -75.04738 | 31195 ft | 506 kts | 33° |
| 2026-04-11 08:04 | 38.51532 | -74.99804 | 31189 ft | 509 kts | 36° |
| 2026-04-11 08:04 | 38.56890 | -74.93898 | 31200 ft | 507 kts | 33° |
| 2026-04-11 08:05 | 38.62369 | -74.88314 | 31206 ft | 507 kts | 33° |
| 2026-04-11 08:05 | 38.67884 | -74.82643 | 31207 ft | 508 kts | 33° |